sensor_id;sensor_type;location;lat;lon;timestamp;pressure;altitude;pressure_sealevel;temperature;humidity
41690;BME280;27372;42.658;23.256;2023-04-23T00:00:39;93734.72;;;7.53;92.71
41690;BME280;27372;42.658;23.256;2023-04-23T00:03:07;93737.41;;;7.65;92.51
41690;BME280;27372;42.658;23.256;2023-04-23T00:05:34;93730.22;;;7.60;91.13
41690;BME280;27372;42.658;23.256;2023-04-23T00:08:01;93738.50;;;7.57;90.89
41690;BME280;27372;42.658;23.256;2023-04-23T00:10:27;93736.38;;;7.85;89.36
41690;BME280;27372;42.658;23.256;2023-04-23T00:12:53;93739.66;;;8.11;86.67
41690;BME280;27372;42.658;23.256;2023-04-23T00:15:18;93740.53;;;7.92;87.48
41690;BME280;27372;42.658;23.256;2023-04-23T00:17:46;93737.63;;;8.13;85.80
41690;BME280;27372;42.658;23.256;2023-04-23T00:20:12;93738.56;;;8.18;84.89
41690;BME280;27372;42.658;23.256;2023-04-23T00:22:38;93742.56;;;8.21;84.66
41690;BME280;27372;42.658;23.256;2023-04-23T00:25:04;93737.78;;;8.18;85.45
41690;BME280;27372;42.658;23.256;2023-04-23T00:27:29;93740.66;;;8.28;85.41
41690;BME280;27372;42.658;23.256;2023-04-23T00:29:54;93737.94;;;8.35;85.97
41690;BME280;27372;42.658;23.256;2023-04-23T00:32:20;93735.88;;;8.25;86.11
41690;BME280;27372;42.658;23.256;2023-04-23T00:34:46;93736.03;;;8.12;85.99
41690;BME280;27372;42.658;23.256;2023-04-23T00:37:13;93744.81;;;7.87;87.69
41690;BME280;27372;42.658;23.256;2023-04-23T00:39:38;93734.28;;;7.19;90.57
41690;BME280;27372;42.658;23.256;2023-04-23T00:42:05;93733.13;;;6.90;93.50
41690;BME280;27372;42.658;23.256;2023-04-23T00:44:36;93733.44;;;6.75;95.23
41690;BME280;27372;42.658;23.256;2023-04-23T00:47:02;93733.34;;;6.63;96.34
41690;BME280;27372;42.658;23.256;2023-04-23T00:49:28;93736.78;;;6.82;95.54
41690;BME280;27372;42.658;23.256;2023-04-23T00:51:54;93733.41;;;7.25;94.16
41690;BME280;27372;42.658;23.256;2023-04-23T00:54:19;93731.53;;;7.51;92.65
41690;BME280;27372;42.658;23.256;2023-04-23T00:56:47;93732.81;;;7.79;90.43
41690;BME280;27372;42.658;23.256;2023-04-23T00:59:13;93737.78;;;7.69;88.95
41690;BME280;27372;42.658;23.256;2023-04-23T01:01:38;93737.41;;;7.84;89.51
41690;BME280;27372;42.658;23.256;2023-04-23T01:04:05;93735.47;;;7.60;89.68
41690;BME280;27372;42.658;23.256;2023-04-23T01:06:31;93743.41;;;7.28;92.30
41690;BME280;27372;42.658;23.256;2023-04-23T01:08:57;93739.13;;;7.15;93.68
41690;BME280;27372;42.658;23.256;2023-04-23T01:11:22;93743.88;;;7.00;94.40
41690;BME280;27372;42.658;23.256;2023-04-23T01:13:49;93737.34;;;6.91;96.21
41690;BME280;27372;42.658;23.256;2023-04-23T01:16:14;93734.78;;;6.84;96.45
41690;BME280;27372;42.658;23.256;2023-04-23T01:18:40;93729.00;;;7.26;94.14
41690;BME280;27372;42.658;23.256;2023-04-23T01:21:07;93732.97;;;7.47;93.12
41690;BME280;27372;42.658;23.256;2023-04-23T01:23:34;93736.03;;;7.63;91.10
41690;BME280;27372;42.658;23.256;2023-04-23T01:25:59;93735.53;;;7.54;90.81
41690;BME280;27372;42.658;23.256;2023-04-23T01:28:25;93739.66;;;7.80;89.33
41690;BME280;27372;42.658;23.256;2023-04-23T01:30:51;93731.00;;;7.80;89.34
41690;BME280;27372;42.658;23.256;2023-04-23T01:33:16;93730.34;;;7.84;89.70
41690;BME280;27372;42.658;23.256;2023-04-23T01:35:43;93735.56;;;7.84;89.65
41690;BME280;27372;42.658;23.256;2023-04-23T01:38:10;93739.84;;;7.78;90.31
41690;BME280;27372;42.658;23.256;2023-04-23T01:40:36;93733.72;;;7.73;89.12
41690;BME280;27372;42.658;23.256;2023-04-23T01:43:03;93745.84;;;7.67;89.82
41690;BME280;27372;42.658;23.256;2023-04-23T01:45:30;93742.41;;;7.67;89.54
41690;BME280;27372;42.658;23.256;2023-04-23T01:47:55;93741.53;;;7.54;90.03
41690;BME280;27372;42.658;23.256;2023-04-23T01:50:21;93736.34;;;7.73;89.93
41690;BME280;27372;42.658;23.256;2023-04-23T01:52:49;93744.44;;;7.83;89.37
41690;BME280;27372;42.658;23.256;2023-04-23T01:55:15;93739.66;;;7.43;90.63
41690;BME280;27372;42.658;23.256;2023-04-23T01:57:43;93743.72;;;6.95;94.17
41690;BME280;27372;42.658;23.256;2023-04-23T02:00:11;93747.97;;;7.14;94.04
41690;BME280;27372;42.658;23.256;2023-04-23T02:02:38;93746.03;;;7.47;93.22
41690;BME280;27372;42.658;23.256;2023-04-23T02:05:11;93745.38;;;7.70;91.43
41690;BME280;27372;42.658;23.256;2023-04-23T02:07:37;93754.69;;;7.85;90.55
41690;BME280;27372;42.658;23.256;2023-04-23T02:10:03;93751.75;;;7.93;89.79
41690;BME280;27372;42.658;23.256;2023-04-23T02:12:29;93750.31;;;7.78;89.58
41690;BME280;27372;42.658;23.256;2023-04-23T02:14:55;93744.84;;;6.80;94.33
41690;BME280;27372;42.658;23.256;2023-04-23T02:17:20;93752.84;;;6.60;95.67
41690;BME280;27372;42.658;23.256;2023-04-23T02:19:48;93748.22;;;6.30;98.11
41690;BME280;27372;42.658;23.256;2023-04-23T02:22:15;93753.38;;;6.37;98.13
41690;BME280;27372;42.658;23.256;2023-04-23T02:24:40;93751.38;;;6.32;98.71
41690;BME280;27372;42.658;23.256;2023-04-23T02:27:06;93750.03;;;6.23;99.60
41690;BME280;27372;42.658;23.256;2023-04-23T02:29:32;93749.56;;;5.94;100.00
41690;BME280;27372;42.658;23.256;2023-04-23T02:31:59;93748.09;;;6.12;100.00
41690;BME280;27372;42.658;23.256;2023-04-23T02:34:24;93749.56;;;6.40;98.96
41690;BME280;27372;42.658;23.256;2023-04-23T02:36:49;93746.81;;;6.60;98.06
41690;BME280;27372;42.658;23.256;2023-04-23T02:39:15;93744.06;;;6.80;97.26
41690;BME280;27372;42.658;23.256;2023-04-23T02:41:41;93745.69;;;6.99;95.94
41690;BME280;27372;42.658;23.256;2023-04-23T02:44:06;93744.72;;;7.19;93.83
41690;BME280;27372;42.658;23.256;2023-04-23T02:46:32;93750.66;;;7.26;92.55
41690;BME280;27372;42.658;23.256;2023-04-23T02:48:57;93744.28;;;7.22;91.96
41690;BME280;27372;42.658;23.256;2023-04-23T02:51:22;93751.91;;;7.24;91.23
41690;BME280;27372;42.658;23.256;2023-04-23T02:53:48;93747.63;;;7.29;90.06
41690;BME280;27372;42.658;23.256;2023-04-23T02:56:13;93752.28;;;7.27;89.97
41690;BME280;27372;42.658;23.256;2023-04-23T02:58:39;93752.03;;;7.29;90.24
41690;BME280;27372;42.658;23.256;2023-04-23T03:01:04;93751.78;;;7.37;90.10
41690;BME280;27372;42.658;23.256;2023-04-23T03:03:31;93762.59;;;7.41;89.88
41690;BME280;27372;42.658;23.256;2023-04-23T03:05:58;93747.06;;;7.46;88.78
41690;BME280;27372;42.658;23.256;2023-04-23T03:08:23;93760.41;;;7.38;87.86
41690;BME280;27372;42.658;23.256;2023-04-23T03:10:48;93775.13;;;6.56;93.46
41690;BME280;27372;42.658;23.256;2023-04-23T03:13:14;93770.50;;;6.26;95.73
41690;BME280;27372;42.658;23.256;2023-04-23T03:15:40;93761.13;;;6.12;96.27
41690;BME280;27372;42.658;23.256;2023-04-23T03:18:06;93767.09;;;5.73;99.21
41690;BME280;27372;42.658;23.256;2023-04-23T03:20:33;93767.81;;;6.01;98.36
41690;BME280;27372;42.658;23.256;2023-04-23T03:22:59;93766.81;;;6.02;98.41
41690;BME280;27372;42.658;23.256;2023-04-23T03:25:24;93766.41;;;6.37;96.65
41690;BME280;27372;42.658;23.256;2023-04-23T03:27:50;93764.00;;;6.03;97.80
41690;BME280;27372;42.658;23.256;2023-04-23T03:30:17;93774.09;;;5.80;99.72
41690;BME280;27372;42.658;23.256;2023-04-23T03:32:42;93766.88;;;5.75;100.00
41690;BME280;27372;42.658;23.256;2023-04-23T03:35:08;93763.25;;;5.83;99.86
41690;BME280;27372;42.658;23.256;2023-04-23T03:37:34;93771.63;;;6.05;99.54
41690;BME280;27372;42.658;23.256;2023-04-23T03:39:59;93777.75;;;6.17;98.77
41690;BME280;27372;42.658;23.256;2023-04-23T03:42:27;93769.16;;;6.49;97.22
41690;BME280;27372;42.658;23.256;2023-04-23T03:44:53;93775.72;;;6.58;96.44
41690;BME280;27372;42.658;23.256;2023-04-23T03:47:18;93762.31;;;6.55;96.46
41690;BME280;27372;42.658;23.256;2023-04-23T03:49:43;93771.22;;;6.72;95.63
41690;BME280;27372;42.658;23.256;2023-04-23T03:52:09;93770.16;;;6.80;94.46
41690;BME280;27372;42.658;23.256;2023-04-23T03:54:34;93776.72;;;6.89;93.99
41690;BME280;27372;42.658;23.256;2023-04-23T03:57:00;93777.22;;;7.23;93.48
41690;BME280;27372;42.658;23.256;2023-04-23T03:59:25;93774.19;;;7.45;91.45
41690;BME280;27372;42.658;23.256;2023-04-23T04:01:51;93781.63;;;7.48;90.98
41690;BME280;27372;42.658;23.256;2023-04-23T04:04:16;93775.31;;;7.56;89.88
41690;BME280;27372;42.658;23.256;2023-04-23T04:06:42;93771.03;;;7.61;90.46
41690;BME280;27372;42.658;23.256;2023-04-23T04:09:07;93782.06;;;7.64;91.21
41690;BME280;27372;42.658;23.256;2023-04-23T04:11:33;93785.25;;;7.84;89.77
41690;BME280;27372;42.658;23.256;2023-04-23T04:13:59;93783.19;;;8.05;88.97
41690;BME280;27372;42.658;23.256;2023-04-23T04:16:24;93778.97;;;8.22;87.84
41690;BME280;27372;42.658;23.256;2023-04-23T04:18:50;93787.53;;;8.30;86.69
41690;BME280;27372;42.658;23.256;2023-04-23T04:21:15;93781.28;;;8.31;86.36
41690;BME280;27372;42.658;23.256;2023-04-23T04:23:44;93791.72;;;8.49;85.33
41690;BME280;27372;42.658;23.256;2023-04-23T04:26:09;93794.19;;;8.63;83.96
41690;BME280;27372;42.658;23.256;2023-04-23T04:28:35;93793.28;;;8.69;83.98
41690;BME280;27372;42.658;23.256;2023-04-23T04:31:04;93796.13;;;8.67;83.61
41690;BME280;27372;42.658;23.256;2023-04-23T04:33:31;93796.69;;;8.69;84.45
41690;BME280;27372;42.658;23.256;2023-04-23T04:35:57;93798.81;;;8.61;83.95
41690;BME280;27372;42.658;23.256;2023-04-23T04:38:24;93799.94;;;8.53;84.35
41690;BME280;27372;42.658;23.256;2023-04-23T04:40:53;93803.75;;;8.69;85.39
41690;BME280;27372;42.658;23.256;2023-04-23T04:43:19;93809.88;;;8.63;85.34
41690;BME280;27372;42.658;23.256;2023-04-23T04:45:51;93802.69;;;8.39;85.94
41690;BME280;27372;42.658;23.256;2023-04-23T04:48:17;93806.59;;;8.67;85.87
41690;BME280;27372;42.658;23.256;2023-04-23T04:50:43;93806.38;;;8.81;84.69
41690;BME280;27372;42.658;23.256;2023-04-23T04:53:08;93814.47;;;8.79;84.05
41690;BME280;27372;42.658;23.256;2023-04-23T04:55:34;93810.19;;;8.97;83.52
41690;BME280;27372;42.658;23.256;2023-04-23T04:57:59;93811.59;;;9.11;83.40
41690;BME280;27372;42.658;23.256;2023-04-23T05:00:27;93816.03;;;9.23;81.96
41690;BME280;27372;42.658;23.256;2023-04-23T05:02:54;93822.09;;;9.35;81.33
41690;BME280;27372;42.658;23.256;2023-04-23T05:05:21;93817.44;;;9.49;81.18
41690;BME280;27372;42.658;23.256;2023-04-23T05:07:47;93804.63;;;9.64;90.61
41690;BME280;27372;42.658;23.256;2023-04-23T05:10:13;93805.22;;;9.67;86.86
41690;BME280;27372;42.658;23.256;2023-04-23T05:12:39;93817.63;;;9.71;83.29
41690;BME280;27372;42.658;23.256;2023-04-23T05:15:09;93804.88;;;9.75;80.63
41690;BME280;27372;42.658;23.256;2023-04-23T05:17:35;93810.78;;;9.82;79.44
41690;BME280;27372;42.658;23.256;2023-04-23T05:20:01;93815.69;;;9.90;78.68
41690;BME280;27372;42.658;23.256;2023-04-23T05:22:27;93811.13;;;9.86;77.94
41690;BME280;27372;42.658;23.256;2023-04-23T05:24:52;93808.25;;;9.99;78.18
41690;BME280;27372;42.658;23.256;2023-04-23T05:27:18;93811.28;;;10.20;77.19
41690;BME280;27372;42.658;23.256;2023-04-23T05:29:43;93827.88;;;10.49;76.73
41690;BME280;27372;42.658;23.256;2023-04-23T05:32:09;93822.69;;;10.66;75.90
41690;BME280;27372;42.658;23.256;2023-04-23T05:34:34;93820.06;;;10.66;74.75
41690;BME280;27372;42.658;23.256;2023-04-23T05:37:00;93815.94;;;10.30;75.27
41690;BME280;27372;42.658;23.256;2023-04-23T05:39:26;93821.78;;;10.20;76.49
41690;BME280;27372;42.658;23.256;2023-04-23T05:41:52;93825.63;;;10.41;75.49
41690;BME280;27372;42.658;23.256;2023-04-23T05:44:17;93825.66;;;10.17;75.83
41690;BME280;27372;42.658;23.256;2023-04-23T05:46:43;93823.50;;;10.14;76.56
41690;BME280;27372;42.658;23.256;2023-04-23T05:49:08;93833.28;;;10.31;76.55
41690;BME280;27372;42.658;23.256;2023-04-23T05:51:33;93833.03;;;10.32;76.37
41690;BME280;27372;42.658;23.256;2023-04-23T05:53:59;93832.84;;;10.22;76.60
41690;BME280;27372;42.658;23.256;2023-04-23T05:56:24;93843.09;;;10.23;76.61
41690;BME280;27372;42.658;23.256;2023-04-23T05:58:50;93840.75;;;9.98;77.17
41690;BME280;27372;42.658;23.256;2023-04-23T06:01:16;93838.44;;;10.37;76.28
41690;BME280;27372;42.658;23.256;2023-04-23T06:03:41;93836.94;;;10.18;76.31
41690;BME280;27372;42.658;23.256;2023-04-23T06:06:12;93831.69;;;10.18;76.38
41690;BME280;27372;42.658;23.256;2023-04-23T06:08:38;93834.53;;;10.28;76.09
41690;BME280;27372;42.658;23.256;2023-04-23T06:11:04;93838.47;;;10.14;76.51
41690;BME280;27372;42.658;23.256;2023-04-23T06:13:29;93841.41;;;10.41;76.93
41690;BME280;27372;42.658;23.256;2023-04-23T06:15:56;93835.00;;;10.25;76.46
41690;BME280;27372;42.658;23.256;2023-04-23T06:18:21;93831.91;;;10.40;76.24
41690;BME280;27372;42.658;23.256;2023-04-23T06:20:46;93839.09;;;10.45;76.51
41690;BME280;27372;42.658;23.256;2023-04-23T06:23:13;93830.25;;;10.63;76.25
41690;BME280;27372;42.658;23.256;2023-04-23T06:25:38;93831.22;;;10.74;76.27
41690;BME280;27372;42.658;23.256;2023-04-23T06:28:04;93836.25;;;10.92;76.54
41690;BME280;27372;42.658;23.256;2023-04-23T06:30:29;93838.56;;;10.88;75.93
41690;BME280;27372;42.658;23.256;2023-04-23T06:32:55;93830.53;;;10.95;75.64
41690;BME280;27372;42.658;23.256;2023-04-23T06:35:20;93838.03;;;11.03;76.27
41690;BME280;27372;42.658;23.256;2023-04-23T06:37:45;93828.00;;;11.17;75.85
41690;BME280;27372;42.658;23.256;2023-04-23T06:40:11;93827.13;;;11.29;75.53
41690;BME280;27372;42.658;23.256;2023-04-23T06:42:36;93837.09;;;11.61;73.75
41690;BME280;27372;42.658;23.256;2023-04-23T06:45:02;93838.28;;;11.70;72.76
41690;BME280;27372;42.658;23.256;2023-04-23T06:47:30;93838.84;;;11.55;72.35
41690;BME280;27372;42.658;23.256;2023-04-23T06:49:57;93834.75;;;11.99;72.53
41690;BME280;27372;42.658;23.256;2023-04-23T06:52:24;93838.72;;;12.01;71.16
41690;BME280;27372;42.658;23.256;2023-04-23T06:54:49;93831.00;;;12.17;71.75
41690;BME280;27372;42.658;23.256;2023-04-23T06:57:15;93826.53;;;11.95;73.34
41690;BME280;27372;42.658;23.256;2023-04-23T06:59:40;93827.91;;;12.20;71.32
41690;BME280;27372;42.658;23.256;2023-04-23T07:02:06;93829.31;;;12.27;70.82
41690;BME280;27372;42.658;23.256;2023-04-23T07:04:31;93840.41;;;12.30;71.62
41690;BME280;27372;42.658;23.256;2023-04-23T07:06:57;93829.84;;;12.52;69.75
41690;BME280;27372;42.658;23.256;2023-04-23T07:09:22;93835.09;;;12.74;69.26
41690;BME280;27372;42.658;23.256;2023-04-23T07:11:48;93830.38;;;12.76;69.38
41690;BME280;27372;42.658;23.256;2023-04-23T07:14:13;93836.78;;;12.85;68.08
41690;BME280;27372;42.658;23.256;2023-04-23T07:16:39;93833.38;;;13.12;68.25
41690;BME280;27372;42.658;23.256;2023-04-23T07:19:04;93824.16;;;13.15;67.29
41690;BME280;27372;42.658;23.256;2023-04-23T07:21:30;93825.38;;;13.34;66.41
41690;BME280;27372;42.658;23.256;2023-04-23T07:23:57;93832.56;;;13.39;65.24
41690;BME280;27372;42.658;23.256;2023-04-23T07:26:31;93832.59;;;13.44;66.57
41690;BME280;27372;42.658;23.256;2023-04-23T07:28:57;93834.66;;;13.75;64.70
41690;BME280;27372;42.658;23.256;2023-04-23T07:31:22;93829.41;;;13.80;63.67
41690;BME280;27372;42.658;23.256;2023-04-23T07:33:48;93832.59;;;13.82;64.95
41690;BME280;27372;42.658;23.256;2023-04-23T07:36:13;93830.53;;;13.51;66.13
41690;BME280;27372;42.658;23.256;2023-04-23T07:38:38;93833.66;;;13.86;64.87
41690;BME280;27372;42.658;23.256;2023-04-23T07:41:04;93822.13;;;14.03;64.20
41690;BME280;27372;42.658;23.256;2023-04-23T07:43:30;93832.34;;;14.42;62.37
41690;BME280;27372;42.658;23.256;2023-04-23T07:45:55;93827.84;;;14.37;61.92
41690;BME280;27372;42.658;23.256;2023-04-23T07:48:20;93839.16;;;14.27;60.65
41690;BME280;27372;42.658;23.256;2023-04-23T07:50:46;93822.88;;;13.93;63.44
41690;BME280;27372;42.658;23.256;2023-04-23T07:53:11;93829.97;;;14.45;61.69
41690;BME280;27372;42.658;23.256;2023-04-23T07:55:37;93834.06;;;14.74;61.26
41690;BME280;27372;42.658;23.256;2023-04-23T07:58:02;93831.22;;;14.91;60.06
41690;BME280;27372;42.658;23.256;2023-04-23T08:00:27;93830.97;;;15.24;60.05
41690;BME280;27372;42.658;23.256;2023-04-23T08:02:57;93835.19;;;15.14;58.22
41690;BME280;27372;42.658;23.256;2023-04-23T08:05:22;93837.59;;;15.16;58.68
41690;BME280;27372;42.658;23.256;2023-04-23T08:07:48;93841.03;;;15.42;58.28
41690;BME280;27372;42.658;23.256;2023-04-23T08:10:13;93833.63;;;15.80;57.14
41690;BME280;27372;42.658;23.256;2023-04-23T08:12:39;93837.28;;;16.21;56.20
41690;BME280;27372;42.658;23.256;2023-04-23T08:15:05;93832.16;;;16.40;56.47
41690;BME280;27372;42.658;23.256;2023-04-23T08:17:31;93836.16;;;16.42;55.19
41690;BME280;27372;42.658;23.256;2023-04-23T08:19:56;93831.53;;;16.64;54.44
41690;BME280;27372;42.658;23.256;2023-04-23T08:22:22;93824.53;;;16.83;53.96
41690;BME280;27372;42.658;23.256;2023-04-23T08:24:47;93824.19;;;16.40;53.85
41690;BME280;27372;42.658;23.256;2023-04-23T08:27:12;93826.06;;;16.34;54.59
41690;BME280;27372;42.658;23.256;2023-04-23T08:29:38;93822.38;;;16.90;52.64
41690;BME280;27372;42.658;23.256;2023-04-23T08:32:03;93820.25;;;16.98;52.50
41690;BME280;27372;42.658;23.256;2023-04-23T08:34:37;93808.38;;;17.59;50.61
41690;BME280;27372;42.658;23.256;2023-04-23T08:37:10;93801.69;;;17.67;51.30
41690;BME280;27372;42.658;23.256;2023-04-23T08:39:36;93802.03;;;17.55;49.38
41690;BME280;27372;42.658;23.256;2023-04-23T08:42:11;93799.75;;;18.02;48.83
41690;BME280;27372;42.658;23.256;2023-04-23T08:44:40;93803.03;;;18.18;47.49
41690;BME280;27372;42.658;23.256;2023-04-23T08:47:07;93804.94;;;18.37;46.12
41690;BME280;27372;42.658;23.256;2023-04-23T08:49:36;93804.28;;;18.93;45.23
41690;BME280;27372;42.658;23.256;2023-04-23T08:52:16;93803.56;;;19.07;44.36
41690;BME280;27372;42.658;23.256;2023-04-23T08:54:47;93800.16;;;19.20;44.62
41690;BME280;27372;42.658;23.256;2023-04-23T08:57:15;93798.59;;;17.84;47.83
41690;BME280;27372;42.658;23.256;2023-04-23T08:59:42;93799.38;;;18.57;46.46
41690;BME280;27372;42.658;23.256;2023-04-23T09:02:08;93788.97;;;18.18;46.25
41690;BME280;27372;42.658;23.256;2023-04-23T09:04:35;93795.59;;;18.20;46.73
41690;BME280;27372;42.658;23.256;2023-04-23T09:07:01;93788.63;;;18.68;45.33
41690;BME280;27372;42.658;23.256;2023-04-23T09:09:28;93788.47;;;18.15;45.25
41690;BME280;27372;42.658;23.256;2023-04-23T09:11:55;93790.00;;;17.68;47.59
41690;BME280;27372;42.658;23.256;2023-04-23T09:14:22;93790.31;;;18.39;45.72
41690;BME280;27372;42.658;23.256;2023-04-23T09:16:50;93786.19;;;18.71;46.14
41690;BME280;27372;42.658;23.256;2023-04-23T09:19:16;93788.16;;;16.44;50.07
41690;BME280;27372;42.658;23.256;2023-04-23T09:21:43;93780.25;;;17.29;61.18
41690;BME280;27372;42.658;23.256;2023-04-23T09:24:13;93774.44;;;18.10;71.59
41690;BME280;27372;42.658;23.256;2023-04-23T09:26:47;93785.09;;;18.72;50.02
41690;BME280;27372;42.658;23.256;2023-04-23T09:29:22;93786.97;;;19.95;44.86
41690;BME280;27372;42.658;23.256;2023-04-23T09:31:57;93779.28;;;20.08;44.44
41690;BME280;27372;42.658;23.256;2023-04-23T09:34:26;93773.63;;;20.51;42.37
41690;BME280;27372;42.658;23.256;2023-04-23T09:36:52;93771.53;;;20.62;42.33
41690;BME280;27372;42.658;23.256;2023-04-23T09:39:20;93767.03;;;21.22;41.95
41690;BME280;27372;42.658;23.256;2023-04-23T09:41:46;93777.91;;;22.02;38.83
41690;BME280;27372;42.658;23.256;2023-04-23T09:44:17;93770.19;;;22.01;37.74
41690;BME280;27372;42.658;23.256;2023-04-23T09:46:43;93756.69;;;22.55;37.23
41690;BME280;27372;42.658;23.256;2023-04-23T09:49:10;93768.97;;;22.56;36.79
41690;BME280;27372;42.658;23.256;2023-04-23T09:51:39;93763.63;;;22.16;37.12
41690;BME280;27372;42.658;23.256;2023-04-23T09:54:18;93763.41;;;22.35;35.83
41690;BME280;27372;42.658;23.256;2023-04-23T09:56:49;93751.47;;;22.41;36.57
41690;BME280;27372;42.658;23.256;2023-04-23T09:59:27;93757.38;;;23.14;35.08
41690;BME280;27372;42.658;23.256;2023-04-23T10:01:53;93756.56;;;23.57;33.67
41690;BME280;27372;42.658;23.256;2023-04-23T10:04:21;93748.31;;;23.80;34.84
41690;BME280;27372;42.658;23.256;2023-04-23T10:06:57;93743.19;;;24.13;33.60
41690;BME280;27372;42.658;23.256;2023-04-23T10:09:23;93742.50;;;23.78;33.73
41690;BME280;27372;42.658;23.256;2023-04-23T10:11:59;93744.03;;;23.96;33.69
41690;BME280;27372;42.658;23.256;2023-04-23T10:14:27;93732.59;;;24.47;32.87
41690;BME280;27372;42.658;23.256;2023-04-23T10:17:01;93731.25;;;24.32;32.94
41690;BME280;27372;42.658;23.256;2023-04-23T10:19:27;93735.28;;;23.52;32.94
41690;BME280;27372;42.658;23.256;2023-04-23T10:22:01;93717.69;;;23.07;33.54
41690;BME280;27372;42.658;23.256;2023-04-23T10:24:36;93717.38;;;23.08;34.63
41690;BME280;27372;42.658;23.256;2023-04-23T10:27:10;93713.47;;;22.22;37.23
41690;BME280;27372;42.658;23.256;2023-04-23T10:29:35;93715.78;;;21.11;38.52
41690;BME280;27372;42.658;23.256;2023-04-23T10:32:05;93707.22;;;21.00;40.15
41690;BME280;27372;42.658;23.256;2023-04-23T10:34:31;93708.00;;;21.01;40.23
41690;BME280;27372;42.658;23.256;2023-04-23T10:36:59;93711.28;;;20.75;41.35
41690;BME280;27372;42.658;23.256;2023-04-23T10:39:26;93706.84;;;21.16;40.51
41690;BME280;27372;42.658;23.256;2023-04-23T10:41:53;93702.56;;;21.06;39.92
41690;BME280;27372;42.658;23.256;2023-04-23T10:44:19;93707.91;;;20.05;40.22
41690;BME280;27372;42.658;23.256;2023-04-23T10:46:56;93688.94;;;19.78;40.43
41690;BME280;27372;42.658;23.256;2023-04-23T10:49:23;93692.75;;;19.30;41.96
41690;BME280;27372;42.658;23.256;2023-04-23T10:51:57;93682.72;;;19.83;40.89
41690;BME280;27372;42.658;23.256;2023-04-23T10:54:27;93678.16;;;20.25;40.31
41690;BME280;27372;42.658;23.256;2023-04-23T10:56:58;93682.34;;;19.90;39.38
41690;BME280;27372;42.658;23.256;2023-04-23T10:59:24;93673.03;;;20.15;38.61
41690;BME280;27372;42.658;23.256;2023-04-23T11:01:49;93674.25;;;19.53;40.25
41690;BME280;27372;42.658;23.256;2023-04-23T11:04:22;93670.31;;;19.78;39.66
41690;BME280;27372;42.658;23.256;2023-04-23T11:12:11;93658.03;;;20.92;37.06
41690;BME280;27372;42.658;23.256;2023-04-23T11:17:03;93652.13;;;20.22;36.53
41690;BME280;27372;42.658;23.256;2023-04-23T11:19:34;93650.78;;;20.47;36.21
41690;BME280;27372;42.658;23.256;2023-04-23T11:22:01;93645.53;;;21.02;37.97
41690;BME280;27372;42.658;23.256;2023-04-23T11:24:29;93652.34;;;21.39;35.70
41690;BME280;27372;42.658;23.256;2023-04-23T11:26:55;93651.75;;;21.51;35.82
41690;BME280;27372;42.658;23.256;2023-04-23T11:29:22;93649.50;;;21.67;31.18
41690;BME280;27372;42.658;23.256;2023-04-23T11:31:48;93646.06;;;21.76;30.97
41690;BME280;27372;42.658;23.256;2023-04-23T11:34:14;93636.75;;;21.64;31.72
41690;BME280;27372;42.658;23.256;2023-04-23T11:36:40;93638.84;;;21.85;31.55
41690;BME280;27372;42.658;23.256;2023-04-23T11:39:05;93628.44;;;21.66;31.69
41690;BME280;27372;42.658;23.256;2023-04-23T11:41:31;93621.78;;;22.30;32.05
41690;BME280;27372;42.658;23.256;2023-04-23T11:43:57;93623.25;;;21.78;32.64
41690;BME280;27372;42.658;23.256;2023-04-23T11:46:23;93625.53;;;21.22;31.72
41690;BME280;27372;42.658;23.256;2023-04-23T11:48:48;93620.59;;;21.78;30.93
41690;BME280;27372;42.658;23.256;2023-04-23T11:51:14;93621.34;;;21.70;30.13
41690;BME280;27372;42.658;23.256;2023-04-23T11:53:48;93616.09;;;22.14;32.00
41690;BME280;27372;42.658;23.256;2023-04-23T11:56:17;93625.59;;;22.64;29.87
41690;BME280;27372;42.658;23.256;2023-04-23T11:58:44;93616.41;;;23.18;27.30
41690;BME280;27372;42.658;23.256;2023-04-23T12:01:10;93623.69;;;23.56;25.89
41690;BME280;27372;42.658;23.256;2023-04-23T12:03:37;93618.53;;;23.81;24.15
41690;BME280;27372;42.658;23.256;2023-04-23T12:06:02;93620.44;;;23.41;25.62
41690;BME280;27372;42.658;23.256;2023-04-23T12:08:31;93618.56;;;23.33;26.23
41690;BME280;27372;42.658;23.256;2023-04-23T12:11:00;93607.69;;;23.38;25.46
41690;BME280;27372;42.658;23.256;2023-04-23T12:13:30;93612.19;;;22.99;26.58
41690;BME280;27372;42.658;23.256;2023-04-23T12:15:59;93620.06;;;22.78;27.38
41690;BME280;27372;42.658;23.256;2023-04-23T12:18:32;93607.03;;;22.32;26.67
41690;BME280;27372;42.658;23.256;2023-04-23T12:21:12;93605.78;;;21.63;27.47
41690;BME280;27372;42.658;23.256;2023-04-23T12:23:41;93604.06;;;21.67;27.35
41690;BME280;27372;42.658;23.256;2023-04-23T12:26:13;93598.44;;;21.37;27.36
41690;BME280;27372;42.658;23.256;2023-04-23T12:31:18;93593.03;;;21.20;26.78
41690;BME280;27372;42.658;23.256;2023-04-23T12:33:44;93586.25;;;20.91;26.87
41690;BME280;27372;42.658;23.256;2023-04-23T12:36:14;93596.41;;;21.03;27.64
41690;BME280;27372;42.658;23.256;2023-04-23T12:38:42;93593.56;;;20.99;27.48
41690;BME280;27372;42.658;23.256;2023-04-23T12:41:08;93585.44;;;20.82;26.56
41690;BME280;27372;42.658;23.256;2023-04-23T12:43:34;93590.84;;;20.45;27.98
41690;BME280;27372;42.658;23.256;2023-04-23T12:45:59;93591.44;;;20.42;27.73
41690;BME280;27372;42.658;23.256;2023-04-23T12:48:24;93592.47;;;20.18;28.16
41690;BME280;27372;42.658;23.256;2023-04-23T12:50:50;93589.41;;;19.88;30.37
41690;BME280;27372;42.658;23.256;2023-04-23T12:53:16;93591.00;;;19.61;31.50
41690;BME280;27372;42.658;23.256;2023-04-23T12:55:42;93591.28;;;19.46;32.63
41690;BME280;27372;42.658;23.256;2023-04-23T12:58:09;93584.75;;;19.24;32.14
41690;BME280;27372;42.658;23.256;2023-04-23T13:00:35;93580.44;;;19.28;32.30
41690;BME280;27372;42.658;23.256;2023-04-23T13:03:01;93591.97;;;19.37;32.67